Time;durP1;ratioP1;P1;durP2;ratioP2;P2;SDS_P1;SDS_P2;PMS_P1;PMS_P2;Temp;Humidity;BMP_temperature;BMP_pressure;BME280_temperature;BME280_humidity;BME280_pressure;Samples;Min_cycle;Max_cycle;Signal;HPM_P1;HPM_P2
2022/06/18 00:00:56;;;;;;;8.30;2.97;;;22.10;82.00;;;;;;5101211;28;20376;-57
2022/06/18 00:03:23;;;;;;;8.52;2.78;;;22.10;81.90;;;;;;5099615;28;20039;-58
2022/06/18 00:05:52;;;;;;;8.43;2.85;;;22.10;82.00;;;;;;5099256;28;20031;-57
2022/06/18 00:08:25;;;;;;;5.43;2.45;;;22.00;82.40;;;;;;5102027;28;20020;-57
2022/06/18 00:13:39;;;;;;;5.88;2.88;;;22.10;82.30;;;;;;5101594;28;20039;-57
2022/06/18 00:13:44;;;;;;;6.70;3.08;;;22.10;82.80;;;;;;5101948;28;20047;-57
2022/06/18 00:16:15;;;;;;;7.35;3.20;;;22.10;83.10;;;;;;5104741;28;20031;-58
2022/06/18 00:18:42;;;;;;;7.65;3.38;;;21.90;84.00;;;;;;5105613;27;20026;-57
2022/06/18 00:21:11;;;;;;;7.82;3.17;;;21.80;85.20;;;;;;5098474;28;20019;-57
2022/06/18 00:23:37;;;;;;;;;;;21.90;84.80;;;;;;5100446;28;20027;-57
2022/06/18 00:26:03;;;;;;;6.50;2.90;;;22.00;84.60;;;;;;5099499;28;20302;-57
2022/06/18 00:28:31;;;;;;;8.50;2.95;;;22.00;85.00;;;;;;5103095;28;20024;-57
2022/06/18 00:30:57;;;;;;;7.95;3.08;;;22.00;84.50;;;;;;5098000;28;20042;-57
2022/06/18 00:33:24;;;;;;;7.38;3.42;;;22.10;84.30;;;;;;5107723;27;20023;-58
2022/06/18 00:35:52;;;;;;;6.93;3.10;;;22.10;84.60;;;;;;5101421;27;20023;-56
2022/06/18 00:38:34;;;;;;;10.05;3.00;;;22.10;84.60;;;;;;5103685;27;20771;-58
2022/06/18 00:41:01;;;;;;;7.97;3.10;;;22.10;84.70;;;;;;5102947;27;20024;-58
2022/06/18 00:43:42;;;;;;;6.72;3.30;;;22.10;84.60;;;;;;5097559;28;20028;-57
2022/06/18 00:46:32;;;;;;;8.27;2.95;;;22.20;84.60;;;;;;5097908;28;20035;-57
2022/06/18 00:49:16;;;;;;;;;;;22.20;84.30;;;;;;5100951;27;20403;-57
2022/06/18 00:51:57;;;;;;;6.55;2.90;;;22.20;84.40;;;;;;5098987;28;19908;-57
2022/06/18 00:54:30;;;;;;;7.60;3.30;;;22.30;84.40;;;;;;5101378;28;20023;-57
2022/06/18 00:57:05;;;;;;;6.45;2.92;;;22.30;84.30;;;;;;5105448;28;20466;-58
2022/06/18 00:59:44;;;;;;;7.97;2.92;;;22.10;84.80;;;;;;5097846;28;20099;-57
2022/06/18 01:02:19;;;;;;;6.50;2.80;;;22.00;85.10;;;;;;5100913;28;20076;-57
2022/06/18 01:04:45;;;;;;;9.95;3.30;;;21.90;85.60;;;;;;5097480;28;20032;-58
2022/06/18 01:07:28;;;;;;;9.10;3.45;;;22.00;85.40;;;;;;5101493;28;20379;-57
2022/06/18 01:09:54;;;;;;;6.82;3.45;;;22.00;86.10;;;;;;5096504;28;20111;-57
2022/06/18 01:12:21;;;;;;;7.68;2.90;;;21.90;86.20;;;;;;5100374;28;20213;-58
2022/06/18 01:14:52;;;;;;;7.97;3.03;;;21.80;86.70;;;;;;5099721;28;20020;-57
2022/06/18 01:17:19;;;;;;;7.32;3.10;;;21.70;87.10;;;;;;5102154;27;20015;-57
2022/06/18 01:19:48;;;;;;;7.97;2.92;;;21.50;88.30;;;;;;5098380;28;20555;-57
2022/06/18 01:22:46;;;;;;;6.57;2.80;;;21.50;89.60;;;;;;5096533;28;20043;-58
2022/06/18 01:25:12;;;;;;;6.18;2.83;;;21.50;89.40;;;;;;5097410;28;20031;-57
2022/06/18 01:27:39;;;;;;;7.07;2.80;;;21.50;89.60;;;;;;5100629;28;20387;-57
2022/06/18 01:30:17;;;;;;;6.70;2.78;;;21.70;89.00;;;;;;5098790;28;20023;-57
2022/06/18 01:32:45;;;;;;;6.60;2.83;;;21.70;89.10;;;;;;5098948;28;20015;-58
2022/06/18 01:35:11;;;;;;;6.90;2.85;;;21.70;88.70;;;;;;5101835;28;20107;-57
2022/06/18 01:37:38;;;;;;;6.57;3.08;;;21.60;90.10;;;;;;5101546;28;20020;-58
2022/06/18 01:40:06;;;;;;;7.57;2.95;;;21.60;89.60;;;;;;5099106;28;20067;-57
2022/06/18 01:42:39;;;;;;;8.02;3.00;;;21.50;90.10;;;;;;5101076;28;20023;-57
2022/06/18 01:45:22;;;;;;;9.10;2.83;;;21.50;90.20;;;;;;5097979;28;20087;-57
2022/06/18 01:47:58;;;;;;;7.75;2.67;;;21.40;90.40;;;;;;5095403;27;20032;-57
2022/06/18 01:50:34;;;;;;;11.30;3.03;;;21.20;91.30;;;;;;5099781;28;20112;-58
2022/06/18 01:53:11;;;;;;;11.48;3.03;;;21.00;91.90;;;;;;5095135;28;20028;-58
2022/06/18 01:55:44;;;;;;;7.78;3.30;;;21.00;91.80;;;;;;5100441;28;20455;-57
2022/06/18 01:58:18;;;;;;;8.90;2.65;;;21.20;91.60;;;;;;5095974;28;20036;-57
2022/06/18 02:00:49;;;;;;;7.47;3.05;;;21.30;91.40;;;;;;5096963;28;20483;-58
2022/06/18 02:03:15;;;;;;;7.93;2.80;;;21.30;91.40;;;;;;5097803;28;20432;-58
2022/06/18 02:05:40;;;;;;;7.13;2.92;;;21.50;91.00;;;;;;5098596;28;20032;-58
2022/06/18 02:08:09;;;;;;;7.03;2.90;;;21.50;91.30;;;;;;5097106;28;20507;-57
2022/06/18 02:10:45;;;;;;;6.50;2.80;;;21.50;91.00;;;;;;5096890;28;20031;-57
2022/06/18 02:13:12;;;;;;;9.52;3.05;;;21.80;90.70;;;;;;5099219;28;20046;-57
2022/06/18 02:15:43;;;;;;;8.07;2.70;;;21.80;90.30;;;;;;5101859;28;20085;-57
2022/06/18 02:18:12;;;;;;;8.68;2.65;;;22.20;90.00;;;;;;5105794;27;20544;-57
2022/06/18 02:20:48;;;;;;;6.75;3.00;;;22.10;90.00;;;;;;5097184;28;20019;-57
2022/06/18 02:23:17;;;;;;;8.13;2.70;;;22.00;90.20;;;;;;5094480;28;20404;-57
2022/06/18 02:25:43;;;;;;;6.35;2.45;;;22.10;90.10;;;;;;5098277;28;20031;-57
2022/06/18 02:28:20;;;;;;;8.90;2.65;;;22.00;90.00;;;;;;5098770;28;20111;-57
2022/06/18 02:30:45;;;;;;;7.32;2.85;;;22.20;89.50;;;;;;5097483;28;20032;-57
2022/06/18 02:33:34;;;;;;;6.00;2.40;;;22.20;89.60;;;;;;5100276;28;20088;-57
2022/06/18 02:36:10;;;;;;;6.57;2.53;;;22.10;89.60;;;;;;5099251;28;20020;-58
2022/06/18 02:38:36;;;;;;;6.35;2.70;;;22.00;90.00;;;;;;5097327;28;20100;-58
2022/06/18 02:41:01;;;;;;;8.38;2.60;;;22.10;90.00;;;;;;5098774;28;20483;-57
2022/06/18 02:43:27;;;;;;;6.10;2.60;;;22.10;90.00;;;;;;5096814;28;20104;-56
2022/06/18 02:45:55;;;;;;;6.68;2.70;;;22.00;90.00;;;;;;5103298;28;20116;-57
2022/06/18 02:48:29;;;;;;;7.30;2.63;;;22.00;90.10;;;;;;5102397;27;20035;-57
2022/06/18 02:50:57;;;;;;;6.78;2.70;;;21.80;90.40;;;;;;5104824;28;20030;-57
2022/06/18 02:53:23;;;;;;;6.95;2.45;;;21.80;90.60;;;;;;5099219;28;20686;-57
2022/06/18 02:55:54;;;;;;;7.07;2.75;;;21.80;90.70;;;;;;5105438;28;20028;-57
2022/06/18 02:58:30;;;;;;;9.52;2.80;;;21.80;90.70;;;;;;5103299;28;20035;-57
2022/06/18 03:01:03;;;;;;;10.50;2.60;;;21.70;90.80;;;;;;5101810;28;20363;-58
2022/06/18 03:03:33;;;;;;;7.20;2.70;;;21.60;91.10;;;;;;5099689;28;20028;-57
2022/06/18 03:05:59;;;;;;;8.23;3.00;;;21.70;91.10;;;;;;5103955;28;20547;-57
2022/06/18 03:08:27;;;;;;;6.10;2.70;;;21.70;91.40;;;;;;5098939;28;20027;-57
2022/06/18 03:13:38;;;;;;;6.43;2.63;;;21.70;91.20;;;;;;5100112;28;20302;-56
2022/06/18 03:16:06;;;;;;;7.50;2.63;;;21.80;91.10;;;;;;5101578;28;20035;-57
2022/06/18 03:18:32;;;;;;;7.40;2.60;;;21.70;91.40;;;;;;5103082;27;20032;-57
2022/06/18 03:21:08;;;;;;;6.53;2.80;;;21.50;91.90;;;;;;5100052;28;20035;-57
2022/06/18 03:23:34;;;;;;;6.55;2.70;;;21.40;92.00;;;;;;5102162;28;20051;-58
2022/06/18 03:26:00;;;;;;;7.90;2.90;;;21.30;92.30;;;;;;5102631;28;20605;-57
2022/06/18 03:28:27;;;;;;;7.43;2.85;;;21.40;92.20;;;;;;5099032;28;20112;-58
2022/06/18 03:30:53;;;;;;;6.13;2.55;;;21.40;92.20;;;;;;5104454;28;20038;-57
2022/06/18 03:33:19;;;;;;;7.57;2.58;;;21.50;92.30;;;;;;5101010;28;20032;-57
2022/06/18 03:35:48;;;;;;;7.20;2.80;;;21.50;92.20;;;;;;5105279;28;20490;-57
2022/06/18 03:38:15;;;;;;;9.60;3.00;;;21.60;92.20;;;;;;5103056;28;20020;-57
2022/06/18 03:40:41;;;;;;;7.07;2.80;;;21.70;92.00;;;;;;5104913;28;20134;-57
2022/06/18 03:43:07;;;;;;;7.75;2.90;;;21.60;92.10;;;;;;5098719;28;20031;-57
2022/06/18 03:45:39;;;;;;;6.65;2.80;;;21.60;92.30;;;;;;5104963;28;20028;-57
2022/06/18 03:48:06;;;;;;;8.13;2.78;;;21.50;92.50;;;;;;5103021;27;20027;-57
2022/06/18 03:50:32;;;;;;;6.68;2.80;;;21.50;92.80;;;;;;5103357;28;20038;-57
2022/06/18 03:52:57;;;;;;;7.18;2.60;;;21.60;92.70;;;;;;5100218;28;20530;-57
2022/06/18 03:55:24;;;;;;;6.95;2.65;;;21.60;92.60;;;;;;5098929;28;20032;-57
2022/06/18 03:57:50;;;;;;;6.28;2.63;;;21.70;92.70;;;;;;5102876;28;20085;-57
2022/06/18 04:00:21;;;;;;;9.27;2.90;;;21.70;92.60;;;;;;5100146;28;20383;-57
2022/06/18 04:02:46;;;;;;;9.07;2.72;;;21.70;92.70;;;;;;5101178;28;20422;-58
2022/06/18 04:05:13;;;;;;;9.45;2.88;;;21.70;92.80;;;;;;5101965;28;20024;-57
2022/06/18 04:07:40;;;;;;;8.70;3.05;;;21.70;93.60;;;;;;5097838;28;20035;-57
2022/06/18 04:10:06;;;;;;;7.35;2.90;;;21.80;92.70;;;;;;5102375;28;20180;-57
2022/06/18 04:12:32;;;;;;;8.63;2.85;;;21.90;92.80;;;;;;5103453;28;20034;-57
2022/06/18 04:14:58;;;;;;;5.78;2.50;;;22.10;92.40;;;;;;5100572;28;20028;-57
2022/06/18 04:17:24;;;;;;;6.93;2.72;;;22.10;92.40;;;;;;5108053;27;20047;-57
2022/06/18 04:19:50;;;;;;;6.05;2.67;;;22.00;92.60;;;;;;5102184;28;20747;-58
2022/06/18 04:22:16;;;;;;;6.90;2.90;;;22.00;92.80;;;;;;5099016;28;20032;-57
2022/06/18 04:24:41;;;;;;;7.50;2.53;;;22.00;92.80;;;;;;5101346;28;20026;-57
2022/06/18 04:27:07;;;;;;;10.93;2.78;;;22.00;93.20;;;;;;5099991;28;20208;-58
2022/06/18 04:29:33;;;;;;;8.68;2.70;;;22.10;92.70;;;;;;5101928;28;20039;-57
2022/06/18 04:31:59;;;;;;;7.18;3.20;;;22.20;92.80;;;;;;5098567;28;20038;-58
2022/06/18 04:34:26;;;;;;;8.07;2.90;;;22.10;93.20;;;;;;5100442;28;20023;-56
2022/06/18 04:36:52;;;;;;;11.95;2.92;;;22.20;92.60;;;;;;5102721;28;20036;-57
2022/06/18 04:39:18;;;;;;;6.38;2.58;;;22.30;92.60;;;;;;5099042;28;20043;-57
2022/06/18 04:41:44;;;;;;;7.78;2.67;;;22.40;92.60;;;;;;5101190;28;20702;-57
2022/06/18 04:44:11;;;;;;;8.38;2.70;;;22.50;92.50;;;;;;5097555;28;20116;-57
2022/06/18 04:46:37;;;;;;;6.53;2.60;;;22.50;92.30;;;;;;5098785;28;20039;-57
2022/06/18 04:49:03;;;;;;;10.35;3.08;;;22.50;92.30;;;;;;5101383;27;20088;-57
2022/06/18 04:51:28;;;;;;;8.02;3.03;;;22.60;92.40;;;;;;5096614;28;20117;-57
2022/06/18 04:53:54;;;;;;;9.80;2.80;;;22.60;92.80;;;;;;5100267;28;20047;-57
2022/06/18 04:56:20;;;;;;;6.82;2.90;;;22.60;92.60;;;;;;5101306;28;20031;-57
2022/06/18 04:58:46;;;;;;;11.45;2.75;;;22.70;92.50;;;;;;5101316;28;20019;-57
2022/06/18 05:01:20;;;;;;;9.63;2.58;;;22.70;92.30;;;;;;5103211;28;20024;-57
2022/06/18 05:03:46;;;;;;;8.05;2.90;;;22.70;92.40;;;;;;5098650;28;20020;-57
2022/06/18 05:06:12;;;;;;;7.22;2.80;;;22.80;92.40;;;;;;5100965;28;20510;-57
2022/06/18 05:08:37;;;;;;;7.72;2.90;;;22.80;92.80;;;;;;5098047;28;20026;-57
2022/06/18 05:11:04;;;;;;;10.80;3.45;;;22.80;92.60;;;;;;5099858;28;20134;-57
2022/06/18 05:13:29;;;;;;;8.25;2.85;;;22.90;92.70;;;;;;5099738;28;20047;-57
2022/06/18 05:15:56;;;;;;;6.55;2.67;;;22.90;92.50;;;;;;5099905;28;20371;-57
2022/06/18 05:18:32;;;;;;;12.05;3.00;;;22.90;92.70;;;;;;5102510;27;20020;-58
2022/06/18 05:20:57;;;;;;;7.53;2.75;;;23.00;92.50;;;;;;5098890;28;20496;-57
2022/06/18 05:23:23;;;;;;;7.68;3.10;;;23.10;92.50;;;;;;5098376;28;20388;-57
2022/06/18 05:25:58;;;;;;;8.70;3.13;;;23.10;92.50;;;;;;5099140;28;20369;-57
2022/06/18 05:28:25;;;;;;;8.32;2.90;;;23.10;92.50;;;;;;5099412;28;20016;-58
2022/06/18 05:30:51;;;;;;;9.68;3.03;;;23.20;92.50;;;;;;5098380;28;20676;-57
2022/06/18 05:33:16;;;;;;;9.02;3.13;;;23.30;92.50;;;;;;5099041;28;20019;-58
2022/06/18 05:35:43;;;;;;;8.18;2.70;;;23.30;92.40;;;;;;5100815;28;20030;-57
2022/06/18 05:38:20;;;;;;;7.20;2.85;;;23.40;92.30;;;;;;5101784;28;20024;-57
2022/06/18 05:40:45;;;;;;;12.48;3.35;;;23.40;92.30;;;;;;5103963;28;20024;-57
2022/06/18 05:43:11;;;;;;;9.68;3.00;;;23.40;92.30;;;;;;5095873;28;20508;-57
2022/06/18 05:45:38;;;;;;;6.53;2.95;;;23.50;92.30;;;;;;5099864;28;20034;-57
2022/06/18 05:48:05;;;;;;;7.43;2.97;;;23.60;92.30;;;;;;5104702;27;20031;-57
2022/06/18 05:50:31;;;;;;;8.60;2.95;;;23.60;92.30;;;;;;5101705;28;20075;-58
2022/06/18 05:52:56;;;;;;;7.22;2.90;;;23.70;92.10;;;;;;5095498;28;20046;-57
2022/06/18 05:55:22;;;;;;;6.85;2.80;;;23.70;92.30;;;;;;5100746;28;20030;-57
2022/06/18 05:57:54;;;;;;;8.20;2.97;;;23.70;92.00;;;;;;5097255;28;20032;-57
2022/06/18 06:00:22;;;;;;;9.65;2.80;;;23.80;92.10;;;;;;5095710;28;20065;-57
2022/06/18 06:02:48;;;;;;;9.80;3.03;;;23.80;92.00;;;;;;5097316;28;20560;-58
2022/06/18 06:05:14;;;;;;;8.48;3.30;;;23.90;92.20;;;;;;5100844;28;20157;-57
2022/06/18 06:07:42;;;;;;;7.90;3.05;;;23.90;92.10;;;;;;5098215;28;20395;-58
2022/06/18 06:13:16;;;;;;;6.50;2.88;;;24.00;91.80;;;;;;5096296;28;20062;-56
2022/06/18 06:15:42;;;;;;;5.90;2.72;;;24.10;91.80;;;;;;5097956;28;20027;-57
2022/06/18 06:18:11;;;;;;;7.50;2.95;;;24.20;91.80;;;;;;5100354;28;20391;-57
2022/06/18 06:20:39;;;;;;;9.23;3.20;;;24.30;91.70;;;;;;5097975;28;20407;-57
2022/06/18 06:23:06;;;;;;;9.48;3.30;;;24.20;92.00;;;;;;5095639;28;20023;-57
2022/06/18 06:25:32;;;;;;;9.00;2.90;;;24.30;92.10;;;;;;5098587;28;20118;-58
2022/06/18 06:27:57;;;;;;;8.45;2.95;;;24.40;91.80;;;;;;5098437;28;20456;-57
2022/06/18 06:30:23;;;;;;;9.05;3.05;;;24.30;91.90;;;;;;5100203;28;20509;-57
2022/06/18 06:32:49;;;;;;;7.32;2.90;;;24.40;91.60;;;;;;5097265;28;20028;-57
2022/06/18 06:35:14;;;;;;;7.40;2.90;;;24.50;91.50;;;;;;5099427;28;20110;-57
2022/06/18 06:37:40;;;;;;;10.50;3.20;;;24.50;92.00;;;;;;5097778;28;20024;-57
2022/06/18 06:40:07;;;;;;;8.15;2.80;;;24.50;91.80;;;;;;5099314;28;20031;-57
2022/06/18 06:42:47;;;;;;;10.80;3.20;;;24.70;91.90;;;;;;5097701;28;20071;-57
2022/06/18 06:45:19;;;;;;;7.18;2.90;;;24.70;91.80;;;;;;5098880;28;20359;-57
2022/06/18 06:47:45;;;;;;;8.38;2.97;;;24.80;91.80;;;;;;5097160;28;20027;-57
2022/06/18 06:50:13;;;;;;;6.82;3.15;;;24.90;91.50;;;;;;5096063;28;20501;-58
2022/06/18 06:52:39;;;;;;;8.68;3.33;;;24.90;91.60;;;;;;5097054;28;20420;-57
2022/06/18 06:57:56;;;;;;;7.15;3.15;;;25.00;91.30;;;;;;5095947;28;20074;-57
2022/06/18 07:00:22;;;;;;;9.60;3.17;;;25.00;91.40;;;;;;5103613;28;20043;-57
2022/06/18 07:02:47;;;;;;;13.52;3.22;;;25.10;91.90;;;;;;5099004;28;20028;-57
2022/06/18 07:05:14;;;;;;;8.98;3.55;;;25.30;91.50;;;;;;5099094;28;20031;-57
2022/06/18 07:07:39;;;;;;;12.35;2.85;;;25.30;91.10;;;;;;5096141;28;20020;-57
2022/06/18 07:10:06;;;;;;;7.38;3.40;;;25.30;90.90;;;;;;5103831;28;20393;-58
2022/06/18 07:12:31;;;;;;;8.90;3.13;;;25.50;91.30;;;;;;5090545;28;20044;-58
2022/06/18 07:14:57;;;;;;;9.43;3.80;;;25.60;91.10;;;;;;5087398;28;20556;-57
2022/06/18 07:17:23;;;;;;;8.65;3.35;;;25.80;90.90;;;;;;5086238;28;20063;-57
2022/06/18 07:19:49;;;;;;;8.70;3.45;;;26.00;90.70;;;;;;5086525;28;20085;-58
2022/06/18 07:22:15;;;;;;;10.52;3.42;;;26.10;91.10;;;;;;5084621;28;20027;-57
2022/06/18 07:24:41;;;;;;;8.32;3.67;;;26.10;90.90;;;;;;5086172;28;20027;-57
2022/06/18 07:27:07;;;;;;;8.75;3.55;;;26.10;89.90;;;;;;5084573;28;20115;-57
2022/06/18 07:29:32;;;;;;;11.00;3.55;;;25.90;90.20;;;;;;5083352;28;20031;-57
2022/06/18 07:32:27;;;;;;;10.63;3.47;;;26.00;90.30;;;;;;5085663;28;20020;-57
2022/06/18 07:34:53;;;;;;;9.32;3.35;;;26.10;89.00;;;;;;5077240;28;20052;-58
2022/06/18 07:37:20;;;;;;;12.00;3.80;;;26.00;89.00;;;;;;5095223;28;20023;-57
2022/06/18 07:39:46;;;;;;;10.25;3.80;;;26.10;90.50;;;;;;5098857;28;20073;-58
2022/06/18 07:42:14;;;;;;;10.10;3.58;;;26.40;90.50;;;;;;5098475;28;20032;-57
2022/06/18 07:44:39;;;;;;;9.30;3.55;;;26.60;89.00;;;;;;5095003;28;20039;-57
2022/06/18 07:47:05;;;;;;;10.57;3.38;;;26.60;87.80;;;;;;5090210;28;20024;-57
2022/06/18 07:49:30;;;;;;;9.82;3.45;;;26.60;87.50;;;;;;5098072;28;20020;-58
2022/06/18 07:51:56;;;;;;;11.60;3.70;;;26.50;87.60;;;;;;5089401;28;20032;-58
2022/06/18 07:54:23;;;;;;;13.77;3.85;;;26.30;88.70;;;;;;5092871;28;20224;-58
2022/06/18 07:56:49;;;;;;;11.18;3.60;;;26.60;88.60;;;;;;5091299;28;20039;-58
2022/06/18 07:59:15;;;;;;;11.57;4.25;;;26.60;87.80;;;;;;5100880;28;20046;-58
2022/06/18 08:01:41;;;;;;;11.57;3.70;;;26.60;89.10;;;;;;5092596;28;20488;-57
2022/06/18 08:04:07;;;;;;;8.88;3.53;;;27.00;88.50;;;;;;5092201;28;20021;-57
2022/06/18 08:06:33;;;;;;;10.77;3.80;;;27.30;88.20;;;;;;5095768;28;20016;-57
2022/06/18 08:08:58;;;;;;;9.05;3.78;;;27.80;86.60;;;;;;5095478;28;20030;-57
2022/06/18 08:11:25;;;;;;;9.30;3.38;;;28.10;85.60;;;;;;5095250;28;20043;-57
2022/06/18 08:13:52;;;;;;;11.40;3.47;;;28.20;84.10;;;;;;5098110;28;20043;-57
2022/06/18 08:16:20;;;;;;;9.30;3.83;;;28.30;82.40;;;;;;5094370;28;20103;-57
2022/06/18 08:18:46;;;;;;;9.70;3.42;;;28.50;82.40;;;;;;5093194;28;20016;-58
2022/06/18 08:21:19;;;;;;;12.88;3.55;;;28.80;82.20;;;;;;5100261;28;20360;-57
2022/06/18 08:23:45;;;;;;;13.48;3.33;;;29.40;82.50;;;;;;5090979;28;20042;-57
2022/06/18 08:26:11;;;;;;;7.80;3.13;;;30.20;79.60;;;;;;5088828;28;20101;-57
2022/06/18 08:28:38;;;;;;;11.25;3.17;;;30.10;77.50;;;;;;5089688;28;20047;-57
2022/06/18 08:31:05;;;;;;;;;;;30.40;77.70;;;;;;5094288;28;20032;-58
2022/06/18 08:33:30;;;;;;;14.80;3.70;;;30.40;77.00;;;;;;5099785;27;20038;-58
2022/06/18 08:35:57;;;;;;;;;;;30.50;77.40;;;;;;5097812;28;20031;-58
2022/06/18 08:38:23;;;;;;;11.23;3.58;;;30.70;77.10;;;;;;5097485;28;20034;-58
2022/06/18 08:41:30;;;;;;;10.38;3.42;;;30.70;75.40;;;;;;5100946;28;20031;-57
2022/06/18 08:44:15;;;;;;;10.13;3.35;;;30.30;76.30;;;;;;5097522;28;20032;-57
2022/06/18 08:46:59;;;;;;;8.35;3.13;;;30.80;75.60;;;;;;5096173;28;20033;-57
2022/06/18 08:49:53;;;;;;;9.18;3.30;;;31.20;75.40;;;;;;5094215;28;20032;-57
2022/06/18 08:52:45;;;;;;;9.50;3.50;;;31.50;75.20;;;;;;5091065;28;20035;-56
2022/06/18 08:55:35;;;;;;;8.80;3.50;;;31.30;74.70;;;;;;5094695;28;20056;-56
2022/06/18 08:58:05;;;;;;;10.47;3.10;;;31.70;74.50;;;;;;5092392;28;20028;-58
2022/06/18 09:00:50;;;;;;;10.00;3.80;;;32.00;73.20;;;;;;5101630;28;19909;-57
2022/06/18 09:03:27;;;;;;;;;;;32.20;72.50;;;;;;5095133;28;20037;-56
2022/06/18 09:05:56;;;;;;;;;;;31.90;73.10;;;;;;5089785;28;19908;-57
2022/06/18 09:08:27;;;;;;;;;;;31.80;72.80;;;;;;5090487;28;20116;-57
2022/06/18 09:10:52;;;;;;;;;;;32.10;72.60;;;;;;5095453;28;20519;-56
2022/06/18 09:13:20;;;;;;;;;;;31.90;70.80;;;;;;5088582;28;20367;-57
2022/06/18 09:15:53;;;;;;;;;;;32.30;71.70;;;;;;5098628;28;19914;-57
2022/06/18 09:18:21;;;;;;;;;;;32.60;70.40;;;;;;5089006;28;19947;-57
2022/06/18 09:20:54;;;;;;;;;;;32.90;71.00;;;;;;5087341;28;20011;-57
2022/06/18 09:23:19;;;;;;;;;;;33.00;69.50;;;;;;5083681;28;19987;-57
2022/06/18 09:25:47;;;;;;;;;;;33.20;69.20;;;;;;5086740;28;19915;-57
2022/06/18 09:28:39;;;;;;;;;;;33.20;70.50;;;;;;5098817;28;19908;-57
2022/06/18 09:31:08;;;;;;;;;;;32.70;69.20;;;;;;5075862;28;19957;-56
2022/06/18 09:33:36;;;;;;;;;;;32.60;69.90;;;;;;5090893;28;19916;-57
2022/06/18 09:36:12;;;;;;;;;;;33.00;68.90;;;;;;5094166;28;20273;-57
2022/06/18 09:38:41;;;;;;;;;;;33.00;69.30;;;;;;5098338;28;19911;-56
2022/06/18 09:41:09;;;;;;;;;;;33.10;69.00;;;;;;5103154;27;20292;-56
2022/06/18 09:43:50;;;;;;;;;;;33.50;69.10;;;;;;5099202;28;20060;-57
2022/06/18 09:46:19;;;;;;;;;;;33.10;68.10;;;;;;5096164;28;19966;-56
2022/06/18 09:48:45;;;;;;;;;;;33.10;68.50;;;;;;5097106;28;20635;-57
2022/06/18 09:51:18;;;;;;;;;;;33.60;69.00;;;;;;5096810;28;19952;-57
2022/06/18 09:53:43;;;;;;;;;;;32.90;66.70;;;;;;5096216;28;20002;-56
2022/06/18 09:56:12;;;;;;;;;;;33.00;67.90;;;;;;5101261;28;20619;-57
2022/06/18 09:58:41;;;;;;;;;;;32.60;67.20;;;;;;5097901;28;20471;-57
2022/06/18 10:01:08;;;;;;;;;;;32.90;67.50;;;;;;5104644;28;20207;-57
2022/06/18 10:09:07;;;;;;;;;;;33.90;65.80;;;;;;5102958;28;19933;-57
2022/06/18 10:11:33;;;;;;;;;;;34.10;65.90;;;;;;5102818;28;20707;-57
2022/06/18 10:14:19;;;;;;;;;;;34.20;65.40;;;;;;5103891;27;19924;-58
2022/06/18 10:16:45;;;;;;;;;;;34.60;64.30;;;;;;5096907;28;19990;-57
2022/06/18 10:19:29;;;;;;;;;;;34.30;64.70;;;;;;5108201;27;20003;-57
2022/06/18 10:21:55;;;;;;;;;;;34.30;64.10;;;;;;5095915;28;20601;-57
2022/06/18 10:24:21;;;;;;;;;;;34.40;63.40;;;;;;5101043;28;19912;-57
2022/06/18 10:27:03;;;;;;;;;;;34.50;64.60;;;;;;5103779;28;19919;-57
2022/06/18 10:29:32;;;;;;;;;;;34.90;64.40;;;;;;5096062;28;20422;-57
2022/06/18 10:32:29;;;;;;;;;;;34.70;63.60;;;;;;5108845;28;20520;-57
2022/06/18 10:35:16;;;;;;;;;;;34.40;62.90;;;;;;5057429;28;20278;-57
2022/06/18 10:38:00;;;;;;;;;;;34.20;64.10;;;;;;5098756;28;19933;-57
2022/06/18 10:40:44;;;;;;;;;;;34.70;63.00;;;;;;5100343;28;19914;-57
2022/06/18 10:43:28;;;;;;;;;;;33.90;63.10;;;;;;5094482;28;19915;-58
2022/06/18 10:45:54;;;;;;;;;;;34.40;64.00;;;;;;5097198;28;20318;-57
2022/06/18 10:48:27;;;;;;;;;;;34.40;63.30;;;;;;5102441;28;20048;-57
2022/06/18 10:50:54;;;;;;;;;;;35.30;63.10;;;;;;5093225;28;19912;-57
2022/06/18 10:53:22;;;;;;;;;;;35.30;62.60;;;;;;5095429;28;19922;-57
2022/06/18 10:56:05;;;;;;;;;;;35.00;61.80;;;;;;5100489;28;19960;-57
2022/06/18 10:58:31;;;;;;;;;;;34.30;63.00;;;;;;5096059;28;19964;-56
2022/06/18 11:01:01;;;;;;;;;;;34.70;63.40;;;;;;5097014;28;19919;-57
2022/06/18 11:03:29;;;;;;;;;;;35.40;63.20;;;;;;5100231;28;20309;-57
2022/06/18 11:05:56;;;;;;;;;;;36.10;61.60;;;;;;5102038;28;20343;-57
2022/06/18 11:08:23;;;;;;;;;;;36.10;61.40;;;;;;5107236;28;19915;-57
2022/06/18 11:10:54;;;;;;;;;;;36.40;62.60;;;;;;5101273;28;20001;-57
2022/06/18 11:13:21;;;;;;;;;;;36.50;60.80;;;;;;5092726;28;19920;-57
2022/06/18 11:15:46;;;;;;;;;;;36.30;60.80;;;;;;5089978;28;19919;-58
2022/06/18 11:18:20;;;;;;;;;;;37.10;62.10;;;;;;5098115;28;20362;-57
2022/06/18 11:20:57;;;;;;;;;;;37.40;61.40;;;;;;4924056;27;19982;-58
2022/06/18 11:23:23;;;;;;;;;;;37.60;60.60;;;;;;5045332;27;19908;-57
2022/06/18 11:27:12;;;;;;;;;;;37.90;59.80;;;;;;5063057;28;19921;-58
2022/06/18 11:29:42;;;;;;;;;;;37.60;58.80;;;;;;5054136;28;19916;-58
2022/06/18 11:32:49;;;;;;;;;;;37.70;60.70;;;;;;4978663;28;19943;-57
2022/06/18 11:35:14;;;;;;;;;;;38.00;58.80;;;;;;4965241;28;19976;-57
2022/06/18 11:37:40;;;;;;;;;;;37.90;58.50;;;;;;4954444;28;19923;-58
2022/06/18 11:40:06;;;;;;;;;;;37.40;57.90;;;;;;4959774;28;19919;-58
2022/06/18 11:42:40;;;;;;;;;;;37.40;58.70;;;;;;4953305;28;20267;-58
2022/06/18 11:45:06;;;;;;;;;;;36.90;58.80;;;;;;4960135;28;19922;-58
2022/06/18 11:47:35;;;;;;;;;;;37.50;58.60;;;;;;4970752;28;20292;-58
2022/06/18 11:50:06;;;;;;;;;;;37.70;59.10;;;;;;4972751;28;20354;-58
2022/06/18 11:52:40;;;;;;;;;;;38.10;57.60;;;;;;4966261;28;19922;-58
2022/06/18 11:55:18;;;;;;;;;;;37.30;58.20;;;;;;4972359;28;19914;-58
2022/06/18 11:58:02;;;;;;;;;;;37.00;58.40;;;;;;4955009;28;20347;-57
2022/06/18 12:00:40;;;;;;;;;;;37.10;60.00;;;;;;4970497;28;20289;-58
2022/06/18 12:04:55;;;;;;;;;;;38.80;58.50;;;;;;4920480;27;19935;-57
2022/06/18 12:07:28;;;;;;;;;;;39.30;57.00;;;;;;5082273;28;20376;-57
2022/06/18 12:09:55;;;;;;;;;;;39.60;57.60;;;;;;5087573;28;19908;-57
2022/06/18 12:12:23;;;;;;;;;;;39.40;55.50;;;;;;5084936;28;20356;-57
2022/06/18 12:15:10;;;;;;;;;;;37.90;56.90;;;;;;5085418;28;20006;-59
2022/06/18 12:17:41;;;;;;;;;;;39.20;57.20;;;;;;4970725;22;19936;-60
2022/06/18 12:20:21;;;;;;;;;;;39.90;56.10;;;;;;5045202;28;19920;-60
2022/06/18 12:22:50;;;;;;;;;;;40.30;55.60;;;;;;5063309;28;20310;-60
2022/06/18 12:25:41;;;;;;;;;;;40.40;55.90;;;;;;5064098;28;19913;-60
2022/06/18 12:28:15;;;;;;;;;;;40.20;55.40;;;;;;5057223;28;19962;-59
2022/06/18 12:30:54;;;;;;;;;;;40.70;55.10;;;;;;5061619;28;19919;-60
2022/06/18 12:33:29;;;;;;;14.40;3.15;;;40.90;55.00;;;;;;5060122;28;19913;-60
2022/06/18 12:36:07;;;;;;;12.80;3.45;;;41.80;53.80;;;;;;5051977;28;20124;-61
2022/06/18 12:38:42;;;;;;;18.70;3.70;;;41.80;54.00;;;;;;5061926;28;20025;-60
2022/06/18 12:41:20;;;;;;;15.98;3.28;;;41.60;54.20;;;;;;5062472;28;20693;-60
2022/06/18 12:44:06;;;;;;;15.18;3.40;;;42.10;53.40;;;;;;5061809;28;20582;-61
2022/06/18 12:46:36;;;;;;;;;;;41.40;54.10;;;;;;5058306;28;20112;-60
2022/06/18 12:49:23;;;;;;;20.30;3.60;;;40.40;54.50;;;;;;5062902;28;20241;-59
2022/06/18 12:51:56;;;;;;;;;;;39.90;54.90;;;;;;5055366;28;20019;-58
2022/06/18 12:57:21;;;;;;;15.48;3.90;;;37.70;57.80;;;;;;5072111;28;20707;-63
2022/06/18 13:00:03;;;;;;;15.07;3.20;;;38.30;57.10;;;;;;5008329;28;20040;-63
2022/06/18 13:02:44;;;;;;;12.63;3.28;;;40.90;56.80;;;;;;5068847;28;20029;-63
2022/06/18 13:05:09;;;;;;;11.20;3.17;;;41.10;54.20;;;;;;5061177;28;20250;-63
2022/06/18 13:07:59;;;;;;;13.95;3.53;;;42.10;52.90;;;;;;5057894;28;20467;-63
2022/06/18 13:11:14;;;;;;;12.32;3.00;;;42.80;53.30;;;;;;5056498;28;20124;-63
2022/06/18 13:14:13;;;;;;;14.40;3.50;;;42.50;53.10;;;;;;5063425;28;20036;-63
2022/06/18 13:16:51;;;;;;;17.98;3.38;;;42.10;53.00;;;;;;5054315;28;20037;-63
2022/06/18 13:19:27;;;;;;;21.85;3.58;;;43.00;53.90;;;;;;5057365;28;20017;-62
2022/06/18 13:21:53;;;;;;;;;;;44.00;51.80;;;;;;5072507;28;20032;-63
2022/06/18 13:29:56;;;;;;;;;;;41.80;52.30;;;;;;5055072;28;19974;-63
2022/06/18 13:32:21;;;;;;;;;;;41.10;53.40;;;;;;5062606;28;19924;-62
2022/06/18 13:35:05;;;;;;;;;;;41.40;53.40;;;;;;5049595;28;19920;-62
2022/06/18 13:37:36;;;;;;;;;;;42.40;53.20;;;;;;5056999;28;19917;-62
2022/06/18 13:40:20;;;;;;;;;;;43.60;52.70;;;;;;5053219;28;19916;-62
2022/06/18 13:42:50;;;;;;;;;;;43.20;51.50;;;;;;5057650;28;19912;-63
2022/06/18 13:45:42;;;;;;;;;;;42.00;52.60;;;;;;5051659;28;20011;-62
2022/06/18 13:48:13;;;;;;;;;;;42.40;52.50;;;;;;5057852;28;19955;-62
2022/06/18 13:50:45;;;;;;;;;;;42.20;53.00;;;;;;5053321;28;19913;-62
2022/06/18 13:53:21;;;;;;;;;;;43.20;51.80;;;;;;5058038;28;19920;-62
2022/06/18 13:55:46;;;;;;;;;;;42.30;52.10;;;;;;5061518;28;19925;-62